Web Počasí Slunečno.cz™ (Podmínky, ePrivacy) používá cookies a personalizace pro reklamní účely. Pohybem po stránce vyjadřujete souhlas. Odejít

Aktuální počasí v Česku a ve světě - METAR

Seznam meteostanic umístěných nejčasteji na letišti v ČR a ve světě

Vyhledat místa podle abecedy:
A B C D E F G H I J K L M N O P Q R S T U V W X Y Z

Filtrovat:

ID stanice:
a/nebo
Název místa (fulltext):
 
Místo (ID)Naposledy načteno 
Brno - Tuřany (Brno/Tu) 08.12.2021 22:00 UTC Zobrazit data
Místo: Brno - Tuřany
Teplota: 0 °C (pocitová: -9.7 °C)
Vítr: 6 m/s z(e) 110°
Počasí: oblačno
Dohlednost: 15 km
Zákl. oblačnosti: 1/8 1140 m;3/8 3600 m
Vlhkost: 80%
Červená - Opava (Cervena/uL) 08.12.2021 22:00 UTC Zobrazit data
Místo: Červená - Opava
Teplota: -5 °C (pocitová: -15.2 °C)
Vítr: 4 m/s z(e) 110°
Počasí: zataženo
Dohlednost: 4700 m
Zákl. oblačnosti: 1/8 1170 m;4/8 2100 m
Vlhkost: 100%
České Budějovice (C.Budej/po) 08.12.2021 22:00 UTC Zobrazit data
Místo: České Budějovice
Teplota: -1 °C (pocitová: -7.2 °C)
Vítr: 2 m/s z(e) 310°
Počasí: zataženo
Dohlednost: 9 km
Zákl. oblačnosti: 7/8 360 m;8/8 450 m
Vlhkost: 86%
Cheb (Cheb) 08.12.2021 22:00 UTC Zobrazit data
Místo: Cheb
Teplota: -2 °C (pocitová: -10 °C)
Vítr: 3 m/s z(e) 40°
Počasí: zataženo
Dohlednost: 3300 m
Zákl. oblačnosti: 8/8 390 m
Vlhkost: 93%
Chotusice - Čáslav (Caslav) 08.12.2021 22:00 UTC Zobrazit data
Místo: Chotusice - Čáslav
Teplota: 2 °C (pocitová: -5.6 °C)
Vítr: 4 m/s z(e) 130°
Počasí: zataženo
Dohlednost: 20 km
Zákl. oblačnosti: 8/8 720 m
Vlhkost: 70%
Churáňov (Churanov) 08.12.2021 22:00 UTC Zobrazit data
Místo: Churáňov
Teplota: -7 °C (pocitová: -12.9 °C)
Vítr: 1 m/s z(e) 160°
Počasí: zataženo
Dohlednost: 7 km
Zákl. oblačnosti: 8/8 3300 m
Vlhkost: 93%
Doksany - Litoměřice (Doksany) 08.12.2021 22:00 UTC Zobrazit data
Místo: Doksany - Litoměřice
Teplota: 0 °C (pocitová: -4.3 °C)
Vítr: 1 m/s z(e) 300°
Počasí: zataženo
Dohlednost: 11 km
Zákl. oblačnosti: 8/8 870 m
Vlhkost: 80%
Dukovany (Dukovany) 08.12.2021 22:00 UTC Zobrazit data
Místo: Dukovany
Teplota: -1 °C (pocitová: -11.2 °C)
Vítr: 6 m/s z(e) 120°
Počasí: zataženo
Dohlednost: 10 km
Zákl. oblačnosti: 8/8 270 m
Vlhkost: 86%
Holešov (Holesov) 08.12.2021 22:00 UTC Zobrazit data
Místo: Holešov
Teplota: 1 °C (pocitová: -7 °C)
Vítr: 4 m/s z(e) 120°
Počasí: zataženo
Dohlednost: 30 km
Zákl. oblačnosti: 6/8 1500 m;8/8 3300 m
Vlhkost: 70%
Kadaň - Tušimice (Tusimice) 08.12.2021 22:00 UTC Zobrazit data
Místo: Kadaň - Tušimice
Teplota: -1 °C (pocitová: -5.5 °C)
Vítr: 1 m/s z(e) 330°
Počasí: zataženo
Dohlednost: 5 km
Zákl. oblačnosti: 8/8 600 m
Vlhkost: 86%
Karlovy Vary (K.Vary) 08.12.2021 22:00 UTC Zobrazit data
Místo: Karlovy Vary
Teplota: -3 °C (pocitová: -9.8 °C)
Vítr: 2 m/s z(e) 110°
Počasí: zataženo
Dohlednost: 6 km
Zákl. oblačnosti: 8/8 150 m
Vlhkost: 93%
Kocelovice (Kocelovice) 08.12.2021 22:00 UTC Zobrazit data
Místo: Kocelovice
Teplota: -2 °C (pocitová: -10 °C)
Vítr: 3 m/s z(e) 80°
Počasí: zataženo
Dohlednost: 6 km
Zákl. oblačnosti: 8/8 360 m
Vlhkost: 93%
Kopisty (Kopisty) 08.12.2021 21:00 UTC Zobrazit data
Místo: Kopisty
Teplota: 0 °C (pocitová: 13.1 °C)
Vítr: 0 m/s z(e) 0°
Počasí: zataženo
Dohlednost: 3000 m
Zákl. oblačnosti: 8/8 780 m
Vlhkost: 87%
Kostelní Myslová (K.Myslova) 08.12.2021 22:00 UTC Zobrazit data
Místo: Kostelní Myslová
Teplota: -1 °C (pocitová: -11.2 °C)
Vítr: 6 m/s z(e) 130°
Počasí: zataženo
Dohlednost: 9 km
Zákl. oblačnosti: 8/8 180 m
Vlhkost: 86%
Křešín - Kramolín (Kramolin) 08.12.2021 22:00 UTC Zobrazit data
Místo: Křešín - Kramolín
Teplota: -1 °C (pocitová: -9.8 °C)
Vítr: 4 m/s z(e) 150°
Počasí: zataženo
Dohlednost: 14 km
Zákl. oblačnosti: 8/8 330 m
Vlhkost: 86%
Kuchařovice - Znojmo (Kucharovic) 08.12.2021 22:00 UTC Zobrazit data
Místo: Kuchařovice - Znojmo
Teplota: 0 °C (pocitová: -11.5 °C)
Vítr: 10 m/s z(e) 130°
Počasí: zataženo
Dohlednost: 14 km
Zákl. oblačnosti: 8/8 510 m
Vlhkost: 87%
Liberec (Liberec) 08.12.2021 22:00 UTC Zobrazit data
Místo: Liberec
Teplota: 0 °C (pocitová: -7.3 °C)
Vítr: 3 m/s z(e) 140°
Počasí: zataženo
Dohlednost: 29 km
Zákl. oblačnosti: 8/8 810 m
Vlhkost: 75%
Luká (Luka) 08.12.2021 22:00 UTC Zobrazit data
Místo: Luká
Teplota: -3 °C (pocitová: -14 °C)
Vítr: 6 m/s z(e) 120°
Počasí: skorojasno
Dohlednost: 11 km
Zákl. oblačnosti: 2/8 960 m
Vlhkost: 86%
Lysá Hora (Lysa Hora) 08.12.2021 22:00 UTC Zobrazit data
Místo: Lysá Hora
Teplota: -6 °C (pocitová: -22.5 °C)
Vítr: 15 m/s z(e) 170°
Počasí: sněží
Dohlednost: 900 m
Zákl. oblačnosti: 2/8 60 m;7/8 690 m
Vlhkost: 100%
Milešovka (Milesovka) 07.12.2021 08:00 UTC Zobrazit data
Místo: Milešovka
Teplota: -4 °C (pocitová: -16.1 °C)
Vítr: 7 m/s z(e) 180°
Počasí: mlha
Dohlednost: 400 m
Zákl. oblačnosti: 7/8 480 m
Vlhkost: 100%
Mošnov (Ostrava/Mo) 08.12.2021 22:00 UTC Zobrazit data
Místo: Mošnov
Teplota: -2 °C (pocitová: -11.1 °C)
Vítr: 4 m/s z(e) 50°
Počasí: zataženo
Dohlednost: 4500 m
Zákl. oblačnosti: 5/8 210 m;8/8 3300 m
Vlhkost: 93%
Náměšť nad Oslavou (Namest n/O) 08.12.2021 22:00 UTC Zobrazit data
Místo: Náměšť nad Oslavou
Teplota: -2 °C (pocitová: -12.6 °C)
Vítr: 6 m/s z(e) 110°
Počasí: zataženo
Dohlednost: 9 km
Zákl. oblačnosti: 8/8 360 m
Vlhkost: 93%
Pardubice (Pardubice) 08.12.2021 22:00 UTC Zobrazit data
Místo: Pardubice
Teplota: 1 °C (pocitová: -7.8 °C)
Vítr: 5 m/s z(e) 90°
Počasí: zataženo
Dohlednost: 20 km
Zákl. oblačnosti: 8/8 840 m
Vlhkost: 75%
Pec pod Sněžkou (Pec p.Snez) 08.12.2021 22:00 UTC Zobrazit data
Místo: Pec pod Sněžkou
Teplota: -3 °C (pocitová: -8 °C)
Vítr: 1 m/s z(e) 0°
Počasí: zataženo
Dohlednost: 30 km
Zákl. oblačnosti: 8/8 420 m
Vlhkost: 86%
Plzeň město - Mikulka (Plzen/Miku) 08.12.2021 22:00 UTC Zobrazit data
Místo: Plzeň město - Mikulka
Teplota: -1 °C (pocitová: -7.2 °C)
Vítr: 2 m/s z(e) 10°
Počasí: zataženo
Dohlednost: 12 km
Zákl. oblačnosti: 8/8 540 m
Vlhkost: 80%
Polom (Polom) 08.12.2021 22:00 UTC Zobrazit data
Místo: Polom
Teplota: -2 °C (pocitová: -11.1 °C)
Vítr: 4 m/s z(e) 160°
Počasí: skoro zataženo
Dohlednost: 20 km
Zákl. oblačnosti: 7/8 3600 m
Vlhkost: 74%
Praha - Karlov (Praha/Kar) 08.12.2021 22:00 UTC Zobrazit data
Místo: Praha - Karlov
Teplota: 0 °C (pocitová: -8.4 °C)
Vítr: 4 m/s z(e) 100°
Počasí: zataženo
Dohlednost: 15 km
Zákl. oblačnosti: 8/8 720 m
Vlhkost: 80%
Praha - Kbely (Praha/Kbe) 08.12.2021 22:00 UTC Zobrazit data
Místo: Praha - Kbely
Teplota: 0 °C (pocitová: -7.3 °C)
Vítr: 3 m/s z(e) 80°
Počasí: zataženo
Dohlednost: 10 km
Zákl. oblačnosti: 8/8 720 m
Vlhkost: 80%
Praha - Libuš (Praha/Lib) 08.12.2021 22:00 UTC Zobrazit data
Místo: Praha - Libuš
Teplota: 0 °C (pocitová: -5.9 °C)
Vítr: 2 m/s z(e) 80°
Počasí: zataženo
Dohlednost: 11 km
Zákl. oblačnosti: 8/8 660 m
Vlhkost: 80%
Praha - Ruzyně (Praha/Ru) 08.12.2021 22:00 UTC Zobrazit data
Místo: Praha - Ruzyně
Teplota: -1 °C (pocitová: -7.2 °C)
Vítr: 2 m/s z(e) 80°
Počasí: zataženo
Dohlednost: 10 km
Zákl. oblačnosti: 8/8 600 m
Vlhkost: 93%
Přibyslav (Pribyslav) 08.12.2021 22:00 UTC Zobrazit data
Místo: Přibyslav
Teplota: -1 °C (pocitová: -12.5 °C)
Vítr: 9 m/s z(e) 140°
Počasí: zataženo
Dohlednost: 12 km
Zákl. oblačnosti: 8/8 390 m
Vlhkost: 86%
Přimda (Primda) 08.12.2021 22:00 UTC Zobrazit data
Místo: Přimda
Teplota: -4 °C (pocitová: -11 °C)
Vítr: 2 m/s z(e) 80°
Počasí: zataženo
Dohlednost: 3100 m
Zákl. oblačnosti: 8/8 30 m
Vlhkost: 100%
Šerák (Serak) 08.12.2021 22:00 UTC Zobrazit data
Místo: Šerák
Teplota: -6 °C (pocitová: -17.6 °C)
Vítr: 5 m/s z(e) 170°
Počasí: zataženo
Dohlednost: 30 km
Zákl. oblačnosti: 8/8 2100 m
Vlhkost: 93%
Svratouch (Svratouch) 08.12.2021 22:00 UTC Zobrazit data
Místo: Svratouch
Teplota: -3 °C (pocitová: -16.9 °C)
Vítr: 12 m/s z(e) 170°
Počasí: zataženo
Dohlednost: 14 km
Zákl. oblačnosti: 8/8 300 m
Vlhkost: 93%
Temelín (Temelin) 08.12.2021 22:00 UTC Zobrazit data
Místo: Temelín
Teplota: -1 °C (pocitová: -7.2 °C)
Vítr: 2 m/s z(e) 60°
Počasí: zataženo
Dohlednost: 8 km
Zákl. oblačnosti: 8/8 300 m
Vlhkost: 93%
Ústí nad Labem - Kočkov (Usti n/L) 08.12.2021 22:00 UTC Zobrazit data
Místo: Ústí nad Labem - Kočkov
Teplota: -1 °C (pocitová: -5.5 °C)
Vítr: 1 m/s z(e) 270°
Počasí: zataženo
Dohlednost: 9 km
Zákl. oblačnosti: 8/8 630 m
Vlhkost: 80%
Ústí nad Orlicí (Usti n/O) 08.12.2021 22:00 UTC Zobrazit data
Místo: Ústí nad Orlicí
Teplota: -1 °C (pocitová: -12.4 °C)
Vítr: 8 m/s z(e) 100°
Počasí: skoro zataženo
Dohlednost: 18 km
Zákl. oblačnosti: 7/8 960 m
Vlhkost: 80%
Aalborg (EKYT) 08.12.2021 21:47 UTC Zobrazit METAR
EKYT 082147Z AUTO 13014KT 9999 BKN010/// OVC027/// 02/01 Q1005
Aarhus (EKAH) 08.12.2021 21:50 UTC Zobrazit METAR
EKAH 082150Z AUTO 13008KT 100V190 5000 -DZ OVC008/// 02/01 Q1006
Abu Dhabi (OMAA) 08.12.2021 22:00 UTC Zobrazit METAR
OMAA 082200Z 07003KT CAVOK 20/10 Q1018 NOSIG
Abuja (DNAA) 08.12.2021 20:00 UTC Zobrazit METAR
DNAA 082000Z 15003KT 5000 HZ NSC 25/19 Q1014 NOSIG
Accra (DGAA) 08.12.2021 22:00 UTC Zobrazit METAR
DGAA 082200Z 20005KT 9999 SCT010 28/25 Q1012 NOSIG
Addis Abeba (HAAB) 25.09.2021 12:00 UTC Zobrazit METAR
HAAB 251200Z 08010KT 9000 BKN025 SCT057 19/10 Q1024
Agana (PGUM) 08.12.2021 21:54 UTC Zobrazit METAR
PGUM 082154Z 07009KT 10SM SCT020 27/26 A2986 RMK AO2 SLP103 T02720256
Ahe Island (NTHE) Zatím nenačteno  
Akureyri (BIAR) 08.12.2021 22:00 UTC Zobrazit METAR
BIAR 082200Z VRB02KT CAVOK M09/M11 Q0997
Almaty (UAAA) Zatím nenačteno  
Amman (OJAM) 08.12.2021 22:00 UTC Zobrazit METAR
OJAM 082200Z 25016KT 2000 BLDU SCT030 SCT080 09/06 Q1019 NOSIG
Amsterdam (EHAM) 08.12.2021 21:55 UTC Zobrazit METAR
EHAM 082155Z 15008KT CAVOK 02/01 Q0999 NOSIG
Antananarivo (FMMI) 08.12.2021 22:00 UTC Zobrazit METAR
FMMI 082200Z 10007KT 9999 FEW015 BKN020 17/15 Q1022 NOSIG
1 2 3 ... 9 Další
Reklama

Reklama


Newslettter

Počasí na Váš email

Každý den Vám pošleme předpověď
Emaily chodí ráno a bez reklamy



Odhlásit newsletter

Reklama